createdAt,value
2019-04-05T00:02:10.785Z,3.06
2019-04-05T00:04:38.800Z,3.07
2019-04-05T00:07:07.167Z,3.06
2019-04-05T00:09:34.218Z,3.08
2019-04-05T00:12:01.258Z,3.07
2019-04-05T00:14:29.399Z,3.08
2019-04-05T00:16:56.666Z,3.07
2019-04-05T00:19:23.982Z,3.06
2019-04-05T00:21:51.023Z,3.04
2019-04-05T00:24:18.074Z,3.01
2019-04-05T00:26:45.115Z,3.04
2019-04-05T00:29:12.165Z,3.04
2019-04-05T00:31:39.202Z,3.01
2019-04-05T00:34:06.256Z,3.01
2019-04-05T00:36:33.292Z,3.02
2019-04-05T00:39:00.452Z,3.02
2019-04-05T00:41:29.111Z,3.01
2019-04-05T00:43:56.162Z,3.02
2019-04-05T00:46:24.520Z,3.04
2019-04-05T00:48:51.570Z,3.04
2019-04-05T00:51:19.027Z,3.03
2019-04-05T00:53:46.379Z,3.01
2019-04-05T00:56:13.413Z,3.02
2019-04-05T00:58:40.467Z,3.02
2019-04-05T01:01:07.831Z,2.99
2019-04-05T01:03:34.883Z,2.96
2019-04-05T01:06:02.253Z,2.96
2019-04-05T01:08:29.305Z,2.94
2019-04-05T01:10:56.645Z,2.94
2019-04-05T01:13:23.684Z,2.94
2019-04-05T01:15:50.736Z,2.95
2019-04-05T01:18:18.112Z,2.95
2019-04-05T01:20:45.446Z,2.92
2019-04-05T01:23:12.479Z,2.95
2019-04-05T01:25:39.528Z,2.95
2019-04-05T01:28:06.573Z,2.97
2019-04-05T01:30:33.617Z,2.97
2019-04-05T01:33:00.657Z,2.97
2019-04-05T01:35:28.042Z,2.99
2019-04-05T01:37:55.075Z,3.00
2019-04-05T01:40:22.131Z,2.99
2019-04-05T01:42:49.172Z,2.97
2019-04-05T01:45:16.228Z,3.02
2019-04-05T01:47:44.507Z,3.05
2019-04-05T01:50:11.860Z,3.07
2019-04-05T01:52:38.910Z,3.03
2019-04-05T01:55:06.209Z,3.03
2019-04-05T01:57:33.315Z,3.06
2019-04-05T02:00:00.368Z,3.07
2019-04-05T02:02:27.717Z,3.11
2019-04-05T02:04:55.070Z,3.11
2019-04-05T02:07:22.105Z,3.12
2019-04-05T02:09:49.153Z,3.10
2019-04-05T02:12:16.266Z,3.10
2019-04-05T02:14:43.318Z,3.11
2019-04-05T02:17:10.615Z,3.13
2019-04-05T02:19:37.668Z,3.13
2019-04-05T02:22:04.700Z,3.11
2019-04-05T02:24:31.733Z,3.13
2019-04-05T02:26:59.113Z,3.16
2019-04-05T02:29:26.224Z,3.13
2019-04-05T02:31:53.276Z,3.13
2019-04-05T02:34:21.744Z,3.13
2019-04-05T02:36:49.048Z,3.16
2019-04-05T02:39:16.088Z,3.17
2019-04-05T02:41:43.455Z,3.15
2019-04-05T02:44:10.495Z,3.13
2019-04-05T02:46:37.800Z,3.11
2019-04-05T02:49:04.844Z,3.06
2019-04-05T02:51:31.895Z,3.04
2019-04-05T02:53:59.410Z,3.05
2019-04-05T02:56:26.455Z,3.04
2019-04-05T02:58:53.734Z,3.02
2019-04-05T03:01:22.716Z,2.99
2019-04-05T03:03:49.958Z,3.01
2019-04-05T03:06:17.012Z,3.02
2019-04-05T03:08:44.050Z,3.01
2019-04-05T03:11:11.408Z,2.96
2019-04-05T03:13:38.467Z,2.92
2019-04-05T03:16:05.504Z,2.93
2019-04-05T03:18:32.857Z,2.93
2019-04-05T03:21:00.209Z,2.92
2019-04-05T03:23:27.263Z,2.92
2019-04-05T03:25:54.315Z,2.90
2019-04-05T03:28:21.355Z,2.90
2019-04-05T03:30:48.406Z,2.90
2019-04-05T03:33:15.467Z,2.88
2019-04-05T03:35:42.539Z,2.84
2019-04-05T03:38:09.574Z,2.81
2019-04-05T03:40:36.626Z,2.82
2019-04-05T03:43:03.659Z,2.83
2019-04-05T03:45:30.718Z,2.81
2019-04-05T03:47:57.757Z,2.79
2019-04-05T03:50:24.808Z,2.79
2019-04-05T03:52:51.844Z,2.75
2019-04-05T03:55:19.197Z,2.74
2019-04-05T03:57:46.249Z,2.75
2019-04-05T04:00:26.256Z,2.74
2019-04-05T04:02:53.326Z,2.77
2019-04-05T04:05:20.698Z,2.77
2019-04-05T04:07:47.757Z,2.77
2019-04-05T04:10:14.817Z,2.80
2019-04-05T04:12:41.849Z,2.82
2019-04-05T04:15:08.884Z,2.82
2019-04-05T04:17:36.266Z,2.83
2019-04-05T04:20:03.306Z,2.85
2019-04-05T04:22:30.666Z,2.86
2019-04-05T04:24:57.689Z,2.83
2019-04-05T04:27:24.744Z,2.86
2019-04-05T04:29:52.096Z,2.86
2019-04-05T04:32:19.403Z,2.87
2019-04-05T04:34:46.805Z,2.86
2019-04-05T04:37:13.858Z,2.87
2019-04-05T04:39:40.896Z,2.88
2019-04-05T04:42:07.957Z,2.89
2019-04-05T04:44:34.994Z,2.89
2019-04-05T04:47:02.353Z,2.89
2019-04-05T04:49:29.710Z,2.91
2019-04-05T04:51:56.757Z,2.92
2019-04-05T04:54:24.129Z,2.94
2019-04-05T04:56:51.234Z,2.94
2019-04-05T04:59:18.221Z,2.95
2019-04-05T05:01:45.557Z,2.94
2019-04-05T05:04:13.484Z,2.93
2019-04-05T05:06:40.536Z,2.93
2019-04-05T05:09:07.936Z,2.97
2019-04-05T05:11:34.984Z,3.03
2019-04-05T05:14:02.279Z,3.06
2019-04-05T05:16:29.329Z,3.09
2019-04-05T05:18:56.366Z,3.12
2019-04-05T05:21:23.785Z,3.13
2019-04-05T05:23:50.827Z,3.15
2019-04-05T05:26:18.189Z,3.15
2019-04-05T05:28:45.549Z,3.19
2019-04-05T05:31:12.897Z,3.24
2019-04-05T05:33:40.256Z,3.31
2019-04-05T05:36:10.489Z,3.35
2019-04-05T05:38:37.627Z,3.34
2019-04-05T05:41:04.663Z,3.33
2019-04-05T05:43:32.031Z,3.35
2019-04-05T05:45:59.065Z,3.36
2019-04-05T05:48:26.437Z,3.37
2019-04-05T05:50:53.470Z,3.42
2019-04-05T05:53:20.834Z,3.47
2019-04-05T05:55:48.220Z,3.49
2019-04-05T05:58:15.264Z,3.48
2019-04-05T06:00:42.312Z,3.48
2019-04-05T06:03:11.178Z,3.47
2019-04-05T06:05:38.161Z,3.46
2019-04-05T06:08:05.493Z,3.47
2019-04-05T06:10:32.530Z,3.49
2019-04-05T06:12:59.883Z,3.54
2019-04-05T06:15:27.254Z,3.61
2019-04-05T06:18:04.473Z,3.66
2019-04-05T06:20:23.321Z,3.74
2019-04-05T06:22:50.368Z,3.79
2019-04-05T06:25:17.644Z,3.85
2019-04-05T06:27:44.694Z,3.85
2019-04-05T06:30:12.083Z,3.87
2019-04-05T06:32:39.210Z,3.91
2019-04-05T06:35:24.738Z,3.93
2019-04-05T06:37:52.072Z,3.92
2019-04-05T06:40:20.281Z,3.95
2019-04-05T06:42:47.336Z,4.02
2019-04-05T06:45:14.375Z,4.07
2019-04-05T06:47:41.814Z,4.12
2019-04-05T06:50:09.154Z,4.16
2019-04-05T06:52:36.221Z,4.19
2019-04-05T06:55:03.267Z,4.18
2019-04-05T06:57:31.370Z,4.21
2019-04-05T06:59:58.418Z,4.25
2019-04-05T07:02:25.453Z,4.29
2019-04-05T07:04:52.507Z,4.26
2019-04-05T07:07:19.548Z,4.35
2019-04-05T07:09:46.598Z,4.47
2019-04-05T07:12:13.628Z,4.53
2019-04-05T07:14:40.681Z,4.59
2019-04-05T07:17:07.720Z,4.66
2019-04-05T07:19:34.773Z,4.71
2019-04-05T07:22:01.815Z,4.76
2019-04-05T07:24:28.865Z,4.81
2019-04-05T07:26:56.206Z,4.90
2019-04-05T07:29:23.253Z,5.02
2019-04-05T07:31:50.299Z,5.11
2019-04-05T07:34:17.651Z,5.17
2019-04-05T07:36:45.025Z,5.27
2019-04-05T07:39:12.079Z,5.24
2019-04-05T07:41:39.128Z,5.21
2019-04-05T07:44:06.479Z,5.21
2019-04-05T07:46:33.833Z,5.26
2019-04-05T07:49:00.884Z,5.26
2019-04-05T07:51:28.897Z,5.18
2019-04-05T07:53:57.953Z,5.21
2019-04-05T07:56:25.284Z,5.23
2019-04-05T07:58:52.322Z,5.24
2019-04-05T08:01:19.365Z,5.25
2019-04-05T08:03:46.402Z,5.28
2019-04-05T08:06:13.456Z,5.30
2019-04-05T08:08:40.490Z,5.36
2019-04-05T08:11:07.550Z,5.41
2019-04-05T08:13:34.593Z,5.39
2019-04-05T08:16:01.647Z,5.39
2019-04-05T08:18:28.687Z,5.41
2019-04-05T08:20:56.035Z,5.41
2019-04-05T08:23:23.024Z,5.28
2019-04-05T08:25:54.517Z,5.14
2019-04-05T08:28:22.947Z,5.17
2019-04-05T08:30:49.996Z,5.17
2019-04-05T08:33:17.030Z,5.15
2019-04-05T08:35:44.088Z,5.19
2019-04-05T08:38:11.551Z,5.21
2019-04-05T08:40:38.602Z,5.08
2019-04-05T08:43:07.648Z,5.08
2019-04-05T08:45:35.048Z,5.21
2019-04-05T08:48:02.422Z,5.30
2019-04-05T08:50:29.478Z,5.24
2019-04-05T08:52:56.515Z,5.24
2019-04-05T08:55:23.578Z,5.40
2019-04-05T08:57:50.919Z,5.61
2019-04-05T09:00:18.275Z,5.65
2019-04-05T09:02:45.380Z,5.86
2019-04-05T09:05:12.787Z,6.11
2019-04-05T09:07:40.094Z,6.31
2019-04-05T09:10:07.502Z,6.48
2019-04-05T09:12:34.538Z,6.62
2019-04-05T09:17:34.143Z,6.60
2019-04-05T09:20:01.500Z,6.67
2019-04-05T09:22:28.533Z,6.61
2019-04-05T09:24:55.572Z,6.54
2019-04-05T09:27:22.771Z,6.53
2019-04-05T09:30:04.896Z,6.53
2019-04-05T09:32:32.323Z,6.59
2019-04-05T09:34:59.358Z,6.72
2019-04-05T09:37:26.414Z,6.80
2019-04-05T09:39:53.455Z,6.84
2019-04-05T09:44:55.839Z,7.30
2019-04-05T09:47:23.197Z,7.45
2019-04-05T09:49:50.240Z,7.41
2019-04-05T09:52:17.289Z,7.27
2019-04-05T09:54:44.662Z,7.21
2019-04-05T09:57:11.721Z,6.90
2019-04-05T09:59:38.745Z,6.68
2019-04-05T10:02:05.797Z,6.80
2019-04-05T10:04:32.837Z,6.84
2019-04-05T10:06:59.885Z,6.97
2019-04-05T10:09:26.932Z,6.78
2019-04-05T10:11:56.178Z,6.72
2019-04-05T10:14:23.209Z,6.71
2019-04-05T10:16:50.258Z,6.75
2019-04-05T10:19:17.581Z,6.71
2019-04-05T10:21:44.936Z,6.57
2019-04-05T10:24:11.972Z,6.56
2019-04-05T10:26:39.340Z,6.73
2019-04-05T10:29:06.710Z,6.57
2019-04-05T10:31:34.017Z,6.30
2019-04-05T10:34:01.301Z,6.23
2019-04-05T10:36:28.350Z,6.25
2019-04-05T10:38:55.721Z,6.18
2019-04-05T10:41:23.220Z,6.02
2019-04-05T10:43:50.292Z,5.98
2019-04-05T10:46:17.346Z,6.06
2019-04-05T10:48:44.740Z,6.00
2019-04-05T10:51:12.033Z,5.91
2019-04-05T10:53:39.070Z,5.68
2019-04-05T10:56:06.478Z,5.71
2019-04-05T10:58:33.579Z,5.79
2019-04-05T11:01:00.548Z,5.73
2019-04-05T11:03:27.665Z,5.69
2019-04-05T11:05:54.696Z,5.74
2019-04-05T11:08:21.746Z,5.71
2019-04-05T11:10:48.776Z,5.67
2019-04-05T11:13:15.829Z,5.84
2019-04-05T11:15:42.861Z,5.87
2019-04-05T11:18:10.314Z,5.92
2019-04-05T11:20:37.349Z,5.96
2019-04-05T11:23:04.425Z,6.06
2019-04-05T11:25:31.766Z,6.11
2019-04-05T11:28:01.008Z,6.10
2019-04-05T11:30:28.041Z,5.94
2019-04-05T11:32:55.088Z,5.90
2019-04-05T11:35:22.130Z,5.96
2019-04-05T11:37:50.656Z,5.82
2019-04-05T11:40:17.894Z,6.01
2019-04-05T11:42:49.436Z,6.18
2019-04-05T11:45:16.752Z,6.11
2019-04-05T11:47:44.108Z,6.15
2019-04-05T11:50:11.140Z,6.23
2019-04-05T11:52:38.194Z,6.28
2019-04-05T11:55:05.238Z,6.27
2019-04-05T11:57:32.277Z,6.18
2019-04-05T11:59:59.655Z,6.15
2019-04-05T12:02:26.954Z,6.29
2019-04-05T12:04:54.831Z,6.36
2019-04-05T12:07:26.268Z,6.46
2019-04-05T12:09:50.654Z,6.57
2019-04-05T12:12:17.676Z,6.47
2019-04-05T12:14:45.015Z,6.54
2019-04-05T12:17:12.387Z,6.55
2019-04-05T12:19:39.436Z,6.52
2019-04-05T12:22:09.101Z,6.39
2019-04-05T12:24:35.505Z,6.36
2019-04-05T12:27:04.841Z,6.23
2019-04-05T12:29:31.665Z,6.20
2019-04-05T12:31:58.704Z,6.14
2019-04-05T12:34:28.458Z,6.25
2019-04-05T12:36:54.795Z,6.57
2019-04-05T12:39:21.848Z,6.79
2019-04-05T12:41:49.220Z,7.08
2019-04-05T12:46:51.305Z,7.40
2019-04-05T12:49:18.634Z,7.44
2019-04-05T12:51:46.198Z,7.52
2019-04-05T12:54:13.669Z,7.48
2019-04-05T12:56:40.706Z,7.33
2019-04-05T12:59:07.760Z,7.37
2019-04-05T13:01:34.797Z,7.55
2019-04-05T13:04:01.859Z,7.42
2019-04-05T13:06:29.204Z,7.48
2019-04-05T13:08:56.259Z,7.70
2019-04-05T13:11:25.885Z,7.77
2019-04-05T13:13:52.041Z,7.81
2019-04-05T13:16:19.077Z,7.94
2019-04-05T13:18:46.125Z,8.00
2019-04-05T13:21:16.162Z,7.84
2019-04-05T13:23:42.180Z,7.88
2019-04-05T13:26:12.237Z,7.95
2019-04-05T13:28:38.325Z,7.79
2019-04-05T13:31:05.357Z,7.71
2019-04-05T13:33:32.405Z,7.59
2019-04-05T13:35:59.711Z,7.64
2019-04-05T13:38:26.767Z,7.68
2019-04-05T13:40:56.715Z,7.67
2019-04-05T13:43:22.861Z,7.59
2019-04-05T13:45:50.258Z,7.55
2019-04-05T13:48:17.630Z,7.47
2019-04-05T13:50:44.667Z,7.47
2019-04-05T13:53:12.045Z,7.50
2019-04-05T13:55:40.742Z,7.47
2019-04-05T13:58:11.322Z,7.42
2019-04-05T14:00:37.681Z,7.43
2019-04-05T14:03:04.744Z,7.39
2019-04-05T14:05:32.076Z,7.42
2019-04-05T14:08:09.938Z,7.40
2019-04-05T14:10:29.301Z,7.28
2019-04-05T14:12:56.697Z,7.11
2019-04-05T14:15:23.747Z,7.07
2019-04-05T14:17:51.856Z,7.08
2019-04-05T14:20:19.803Z,7.06
2019-04-05T14:22:48.637Z,7.10
2019-04-05T14:25:15.668Z,7.10
2019-04-05T14:27:42.712Z,7.09
2019-04-05T14:30:13.649Z,7.03
2019-04-05T14:32:40.827Z,7.00
2019-04-05T14:35:08.410Z,7.07
2019-04-05T14:37:35.431Z,6.97
2019-04-05T14:40:02.722Z,7.05
2019-04-05T14:42:29.933Z,7.11
2019-04-05T14:44:58.399Z,6.98
2019-04-05T14:47:27.986Z,6.99
2019-04-05T14:49:54.426Z,7.05
2019-04-05T14:52:21.750Z,7.07
2019-04-05T14:54:48.800Z,7.11
2019-04-05T14:57:15.836Z,7.14
2019-04-05T14:59:42.894Z,7.17
2019-04-05T15:02:09.934Z,7.25
2019-04-05T15:04:36.994Z,7.38
2019-04-05T15:07:04.024Z,7.45
2019-04-05T15:09:31.072Z,7.42
2019-04-05T15:11:58.677Z,7.48
2019-04-05T15:14:26.276Z,7.47
2019-04-05T15:16:53.328Z,7.46
2019-04-05T15:19:20.710Z,7.44
2019-04-05T15:21:47.757Z,7.40
2019-04-05T15:24:16.888Z,7.40
2019-04-05T15:29:29.716Z,7.23
2019-04-05T15:31:56.769Z,7.17
2019-04-05T15:34:28.127Z,7.18
2019-04-05T15:36:53.087Z,7.19
2019-04-05T15:39:20.121Z,7.24
2019-04-05T15:41:47.507Z,7.21
2019-04-05T15:44:14.850Z,7.21
2019-04-05T15:46:42.199Z,7.17
2019-04-05T15:49:09.553Z,7.18
2019-04-05T15:51:36.607Z,7.04
2019-04-05T15:54:03.651Z,7.06
2019-04-05T15:56:33.152Z,7.04
2019-04-05T15:59:03.500Z,7.09
2019-04-05T16:01:28.200Z,7.08
2019-04-05T16:03:55.241Z,7.09
2019-04-05T16:06:22.296Z,7.14
2019-04-05T16:08:49.734Z,7.20
2019-04-05T16:11:16.773Z,7.24
2019-04-05T16:13:43.825Z,7.29
2019-04-05T16:16:10.878Z,7.27
2019-04-05T16:18:37.982Z,7.26
2019-04-05T16:21:05.045Z,7.22
2019-04-05T16:23:32.442Z,7.13
2019-04-05T16:25:59.496Z,7.06
2019-04-05T16:28:27.672Z,7.03
2019-04-05T16:30:54.727Z,7.07
2019-04-05T16:33:22.051Z,7.03
2019-04-05T16:35:51.663Z,6.99
2019-04-05T16:43:49.502Z,6.97
2019-04-05T16:48:59.761Z,6.94
2019-04-05T16:51:28.981Z,6.89
2019-04-05T16:53:56.214Z,6.88
2019-04-05T16:56:23.269Z,6.89
2019-04-05T16:59:00.450Z,6.89
2019-04-05T17:01:31.155Z,6.81
2019-04-05T17:04:00.679Z,6.77
2019-04-05T17:06:32.708Z,6.77
2019-04-05T17:09:00.436Z,6.76
2019-04-05T17:11:33.703Z,6.73
2019-04-05T17:14:16.212Z,6.68
2019-04-05T17:16:49.189Z,6.63
2019-04-05T17:19:18.164Z,6.57
2019-04-05T17:21:45.303Z,6.48
2019-04-05T17:24:12.604Z,6.44
2019-04-05T17:26:43.777Z,6.40
2019-04-05T17:29:14.084Z,6.37
2019-04-05T17:31:42.264Z,6.34
2019-04-05T17:34:10.421Z,6.32
2019-04-05T17:39:17.333Z,6.32
2019-04-05T17:41:44.591Z,6.33
2019-04-05T17:44:20.630Z,6.32
2019-04-05T17:46:47.907Z,6.32
2019-04-05T17:49:26.090Z,6.29
2019-04-05T17:51:53.361Z,6.29
2019-04-05T17:54:21.623Z,6.25
2019-04-05T17:56:48.850Z,6.22
2019-04-05T17:59:22.882Z,6.19
2019-04-05T18:01:51.085Z,6.17
2019-04-05T18:04:27.911Z,6.15
2019-04-05T18:06:59.468Z,6.15
2019-04-05T18:09:34.805Z,6.13
2019-04-05T18:14:43.481Z,6.09
2019-04-05T18:17:11.666Z,6.10
2019-04-05T18:19:44.734Z,6.08
2019-04-05T18:22:15.276Z,6.07
2019-04-05T18:24:43.415Z,6.08
2019-04-05T18:27:11.529Z,6.09
2019-04-05T18:29:40.706Z,6.09
2019-04-05T18:32:08.904Z,6.09
2019-04-05T18:34:40.328Z,6.13
2019-04-05T18:39:44.391Z,6.15
2019-04-05T18:44:50.161Z,6.11
2019-04-05T18:47:18.426Z,6.09
2019-04-05T18:50:03.251Z,6.08
2019-04-05T18:52:33.718Z,6.05
2019-04-05T18:55:08.025Z,6.05
2019-04-05T18:57:35.078Z,6.05
2019-04-05T19:00:11.460Z,6.03
2019-04-05T19:02:40.644Z,6.04
2019-04-05T19:05:08.808Z,6.04
2019-04-05T19:07:36.998Z,6.04
2019-04-05T19:10:16.318Z,6.03
2019-04-05T19:15:23.291Z,5.95
2019-04-05T19:17:50.486Z,5.88
2019-04-05T19:20:23.758Z,5.80
2019-04-05T19:22:51.036Z,5.71
2019-04-05T19:25:24.204Z,5.62
2019-04-05T19:51:11.995Z,4.81
2019-04-05T19:53:39.061Z,4.74
2019-04-05T19:56:06.991Z,4.66
2019-04-05T19:58:37.249Z,4.60
2019-04-05T20:01:20.563Z,4.53
2019-04-05T20:06:40.584Z,4.46
2019-04-05T20:09:09.822Z,4.43
2019-04-05T20:19:42.004Z,4.30
2019-04-05T20:22:18.949Z,4.22
2019-04-05T20:24:46.142Z,4.12
2019-04-05T20:27:13.186Z,4.05
2019-04-05T20:29:45.366Z,4.01
2019-04-05T20:32:28.438Z,3.94
2019-04-05T20:34:59.014Z,3.91
2019-04-05T20:37:26.056Z,3.89
2019-04-05T20:39:53.309Z,3.91
2019-04-05T20:42:25.570Z,3.88
2019-04-05T20:47:42.206Z,3.91
2019-04-05T20:50:11.789Z,3.91
2019-04-05T20:52:38.946Z,3.86
2019-04-05T20:57:40.435Z,3.77
2019-04-05T21:00:07.495Z,3.72
2019-04-05T21:02:45.258Z,3.72
2019-04-05T21:05:24.705Z,3.74
2019-04-05T21:07:45.937Z,3.78
2019-04-05T21:10:19.016Z,3.87
2019-04-05T21:12:55.061Z,3.94
2019-04-05T21:15:23.254Z,4.02
2019-04-05T21:17:58.473Z,4.07
2019-04-05T21:20:30.325Z,4.09
2019-04-05T21:22:57.488Z,4.12
2019-04-05T21:25:25.683Z,4.16
2019-04-05T21:27:58.651Z,4.20
2019-04-05T21:35:47.144Z,4.29
2019-04-05T21:38:21.500Z,4.30
2019-04-05T21:40:50.664Z,4.32
2019-04-05T21:51:26.737Z,4.42
2019-04-05T21:54:02.931Z,4.39
2019-04-05T21:56:30.497Z,4.31
2019-04-05T21:58:57.528Z,4.29
2019-04-05T22:04:00.821Z,4.20
2019-04-05T22:06:28.112Z,4.11
2019-04-05T22:09:02.417Z,4.02
2019-04-05T22:14:15.710Z,3.85
2019-04-05T22:16:43.959Z,3.76
2019-04-05T22:24:16.426Z,3.93
2019-04-05T22:26:43.982Z,4.02
2019-04-05T22:29:11.750Z,4.03
2019-04-05T22:31:44.016Z,3.94
2019-04-05T22:34:18.261Z,3.72
2019-04-05T22:39:34.755Z,3.16
2019-04-05T22:42:03.237Z,2.97
2019-04-05T22:44:38.854Z,2.81
2019-04-05T22:47:03.887Z,2.65
2019-04-05T22:49:49.283Z,2.47
2019-04-05T22:52:20.244Z,2.35
2019-04-05T22:54:48.404Z,2.30
2019-04-05T22:57:15.934Z,2.37
2019-04-05T22:59:42.970Z,2.43
2019-04-05T23:02:10.227Z,2.49
2019-04-05T23:04:50.725Z,2.53
2019-04-05T23:07:19.282Z,2.55
2019-04-05T23:09:56.800Z,2.56
2019-04-05T23:12:27.410Z,2.63
2019-04-05T23:14:54.608Z,2.78
2019-04-05T23:17:21.852Z,2.86
2019-04-05T23:19:57.478Z,2.85
2019-04-05T23:22:24.653Z,2.80
2019-04-05T23:24:51.891Z,2.78
2019-04-05T23:30:12.274Z,2.65
2019-04-05T23:32:39.477Z,2.58
2019-04-05T23:35:12.758Z,2.55
2019-04-05T23:37:39.800Z,2.54
2019-04-05T23:40:06.854Z,2.50
2019-04-05T23:42:34.175Z,2.47
2019-04-05T23:45:01.532Z,2.44
2019-04-05T23:47:28.644Z,2.41
2019-04-05T23:49:55.683Z,2.39
2019-04-05T23:52:22.732Z,2.36
2019-04-05T23:54:49.817Z,2.30
2019-04-05T23:57:16.822Z,2.23
2019-04-05T23:59:43.857Z,2.19
